Time;durP1;ratioP1;P1;durP2;ratioP2;P2;SDS_P1;SDS_P2;PMS_P1;PMS_P2;Temp;Humidity;BMP_temperature;BMP_pressure;BME280_temperature;BME280_humidity;BME280_pressure;Samples;Min_cycle;Max_cycle;Signal;HPM_P1;HPM_P2
2024/01/28 00:01:51;;;;;;;7.53;6.90;;;17.40;67.60;;;;;;5033475;28;43528;-73
2024/01/28 00:04:21;;;;;;;7.00;6.50;;;17.40;67.60;;;;;;5032593;28;43494;-75
2024/01/28 00:06:49;;;;;;;7.30;6.70;;;17.40;67.80;;;;;;5031063;28;43608;-74
2024/01/28 00:09:18;;;;;;;7.97;7.27;;;17.30;67.80;;;;;;5029188;28;43406;-75
2024/01/28 00:11:46;;;;;;;7.30;6.70;;;17.30;67.70;;;;;;5028905;28;43440;-72
2024/01/28 00:14:14;;;;;;;6.77;6.30;;;17.30;67.90;;;;;;5029625;28;43444;-74
2024/01/28 00:16:42;;;;;;;7.13;6.57;;;17.30;67.90;;;;;;5028594;28;43612;-76
2024/01/28 00:19:11;;;;;;;7.03;6.53;;;17.30;68.00;;;;;;5028625;28;43493;-74
2024/01/28 00:21:40;;;;;;;6.87;6.47;;;17.30;68.00;;;;;;5028493;28;43349;-73
2024/01/28 00:24:08;;;;;;;7.63;6.93;;;17.30;68.10;;;;;;5029097;28;43493;-73
2024/01/28 00:26:39;;;;;;;7.17;6.57;;;17.20;68.00;;;;;;5028294;28;43888;-73
2024/01/28 00:29:07;;;;;;;6.50;6.00;;;17.20;68.00;;;;;;5028313;28;43368;-74
2024/01/28 00:31:36;;;;;;;6.60;6.13;;;17.20;68.10;;;;;;5028790;28;43475;-74
2024/01/28 00:34:04;;;;;;;6.50;6.10;;;17.20;68.10;;;;;;5033770;28;43458;-73
2024/01/28 00:36:32;;;;;;;6.50;6.10;;;17.20;68.20;;;;;;5027665;28;45376;-73
2024/01/28 00:39:02;;;;;;;6.53;6.00;;;17.20;68.20;;;;;;5028563;28;43496;-74
2024/01/28 00:41:30;;;;;;;6.93;6.43;;;17.20;68.30;;;;;;5027980;28;43453;-71
2024/01/28 00:44:01;;;;;;;7.00;6.50;;;17.30;68.20;;;;;;5032942;28;44614;-72
2024/01/28 00:46:29;;;;;;;6.87;6.37;;;17.30;67.90;;;;;;5027072;28;43599;-72
2024/01/28 00:48:57;;;;;;;6.00;5.60;;;17.40;67.70;;;;;;5027372;28;43403;-71
2024/01/28 00:51:25;;;;;;;6.40;5.90;;;17.40;67.70;;;;;;5026060;28;43532;-71
2024/01/28 00:53:53;;;;;;;6.83;6.33;;;17.40;68.50;;;;;;5027580;28;43973;-71
2024/01/28 00:56:23;;;;;;;6.17;5.77;;;17.30;67.80;;;;;;5025536;28;44100;-72
2024/01/28 00:58:51;;;;;;;5.87;5.47;;;17.30;67.70;;;;;;5023052;28;43970;-73
2024/01/28 01:01:19;;;;;;;6.17;5.67;;;17.30;67.70;;;;;;5023820;28;43406;-71
2024/01/28 01:03:48;;;;;;;6.50;6.10;;;17.30;67.80;;;;;;5024550;28;43481;-72
2024/01/28 01:06:16;;;;;;;6.10;5.70;;;17.30;67.90;;;;;;5025100;28;45881;-73
2024/01/28 01:08:44;;;;;;;6.17;5.67;;;17.30;68.00;;;;;;5022728;28;44867;-72
2024/01/28 01:11:12;;;;;;;6.60;6.10;;;17.20;68.80;;;;;;5024758;28;43339;-72
2024/01/28 01:13:41;;;;;;;5.50;5.13;;;17.20;67.90;;;;;;5029207;28;43472;-72
2024/01/28 01:16:10;;;;;;;6.20;5.80;;;17.20;67.90;;;;;;5031847;28;45683;-71
2024/01/28 01:18:38;;;;;;;6.10;5.70;;;17.20;68.00;;;;;;5030676;28;43471;-71
2024/01/28 01:21:06;;;;;;;5.30;5.00;;;17.20;68.00;;;;;;5029096;28;43453;-72
2024/01/28 01:23:36;;;;;;;5.80;5.50;;;17.20;68.00;;;;;;5030994;28;43467;-72
2024/01/28 01:26:04;;;;;;;5.60;5.23;;;17.20;68.20;;;;;;5029292;28;45786;-72
2024/01/28 01:28:32;;;;;;;5.97;5.47;;;17.20;68.20;;;;;;5029804;28;43481;-73
2024/01/28 01:31:03;;;;;;;6.00;5.57;;;17.30;68.00;;;;;;5024867;28;43379;-74
2024/01/28 01:33:31;;;;;;;5.93;5.40;;;17.40;67.70;;;;;;5029614;28;43599;-72
2024/01/28 01:35:59;;;;;;;5.33;5.03;;;17.40;67.50;;;;;;5028586;28;45648;-72
2024/01/28 01:38:28;;;;;;;5.57;5.27;;;17.40;67.60;;;;;;5031086;28;43352;-72
2024/01/28 01:40:56;;;;;;;5.87;5.47;;;17.30;67.60;;;;;;5028355;28;43482;-71
2024/01/28 01:43:27;;;;;;;5.77;5.47;;;17.30;67.80;;;;;;5028586;28;43469;-71
2024/01/28 01:45:55;;;;;;;5.30;5.00;;;17.30;67.60;;;;;;5035090;28;43612;-72
2024/01/28 01:48:24;;;;;;;5.63;5.33;;;17.30;67.70;;;;;;5030217;28;43467;-73
2024/01/28 01:50:53;;;;;;;5.10;4.90;;;17.30;67.80;;;;;;5030263;28;43384;-76
2024/01/28 01:53:21;;;;;;;5.50;5.13;;;17.30;68.00;;;;;;5028490;28;43594;-77
2024/01/28 01:55:49;;;;;;;6.03;5.73;;;17.20;67.90;;;;;;5027905;28;44702;-77
2024/01/28 01:58:17;;;;;;;5.30;4.97;;;17.20;68.00;;;;;;5029642;28;43930;-78
2024/01/28 02:00:45;;;;;;;5.10;4.80;;;17.20;67.90;;;;;;5029715;28;43439;-76
2024/01/28 02:03:14;;;;;;;5.40;5.10;;;17.20;68.60;;;;;;5028749;28;43462;-77
2024/01/28 02:05:43;;;;;;;4.83;4.63;;;17.20;67.90;;;;;;5032452;28;45794;-77
2024/01/28 02:08:12;;;;;;;4.60;4.40;;;17.20;68.00;;;;;;5029498;28;44033;-77
2024/01/28 02:10:40;;;;;;;5.37;5.07;;;17.20;68.00;;;;;;5029332;28;43433;-79
2024/01/28 02:13:08;;;;;;;5.00;4.80;;;17.20;68.10;;;;;;5029515;28;43542;-77
2024/01/28 02:15:37;;;;;;;5.53;5.20;;;17.20;68.20;;;;;;5028103;28;46111;-77
2024/01/28 02:18:06;;;;;;;4.77;4.57;;;17.20;68.00;;;;;;5029243;28;43356;-76
2024/01/28 02:20:34;;;;;;;5.30;5.00;;;17.30;67.70;;;;;;5027922;28;43348;-77
2024/01/28 02:23:04;;;;;;;4.80;4.60;;;17.40;67.30;;;;;;5029904;28;44019;-77
2024/01/28 02:25:34;;;;;;;5.37;5.10;;;17.40;68.00;;;;;;5030425;28;43685;-77
2024/01/28 02:28:02;;;;;;;4.47;4.27;;;17.40;67.40;;;;;;5028832;28;43449;-76
2024/01/28 02:30:30;;;;;;;4.77;4.50;;;17.40;67.50;;;;;;5029802;28;43453;-74
2024/01/28 02:32:58;;;;;;;4.93;4.67;;;17.30;67.40;;;;;;5029722;28;43702;-73
2024/01/28 02:35:27;;;;;;;4.80;4.50;;;17.30;67.40;;;;;;5036878;28;43850;-76
2024/01/28 02:37:55;;;;;;;4.50;4.30;;;17.30;68.30;;;;;;5029188;28;44702;-73
2024/01/28 02:40:23;;;;;;;4.97;4.60;;;17.30;67.70;;;;;;5030330;28;43403;-76
2024/01/28 02:42:55;;;;;;;5.00;4.70;;;17.30;67.80;;;;;;5029574;28;43487;-75
2024/01/28 02:45:23;;;;;;;4.53;4.33;;;17.20;67.80;;;;;;5032725;28;43792;-73
2024/01/28 02:47:51;;;;;;;4.00;3.90;;;17.20;67.90;;;;;;5028357;28;45124;-75
2024/01/28 02:50:19;;;;;;;4.27;4.13;;;17.20;67.70;;;;;;5030297;28;43436;-73
2024/01/28 02:52:47;;;;;;;4.53;4.33;;;17.20;67.90;;;;;;5029000;28;43519;-73
2024/01/28 02:55:17;;;;;;;4.30;4.10;;;17.20;68.00;;;;;;5032351;28;43755;-73
2024/01/28 02:57:45;;;;;;;4.80;4.50;;;17.20;68.00;;;;;;5030164;28;43494;-75
2024/01/28 03:00:16;;;;;;;4.37;4.13;;;17.20;68.00;;;;;;5029830;28;43431;-72
2024/01/28 03:02:48;;;;;;;4.77;4.47;;;17.20;68.20;;;;;;5029539;28;44060;-71
2024/01/28 03:05:16;;;;;;;4.70;4.40;;;17.20;68.00;;;;;;5034059;28;43604;-71
2024/01/28 03:07:44;;;;;;;4.30;4.13;;;17.30;67.80;;;;;;5027070;28;44970;-70
2024/01/28 03:10:15;;;;;;;4.13;4.00;;;17.30;67.50;;;;;;5029235;28;43521;-71
2024/01/28 03:12:43;;;;;;;3.93;3.73;;;17.30;67.50;;;;;;5027655;28;43452;-71
2024/01/28 03:15:11;;;;;;;4.00;3.80;;;17.30;67.70;;;;;;5028639;28;43854;-71
2024/01/28 03:17:41;;;;;;;4.30;4.03;;;17.20;67.70;;;;;;5028461;28;43392;-72
2024/01/28 03:20:10;;;;;;;4.37;4.17;;;17.20;67.70;;;;;;5027112;28;44010;-70
2024/01/28 03:22:39;;;;;;;3.90;3.70;;;17.20;67.70;;;;;;5028945;28;43385;-70
2024/01/28 03:25:08;;;;;;;4.07;3.87;;;17.20;67.80;;;;;;5035607;28;43607;-71
2024/01/28 03:27:36;;;;;;;4.10;3.90;;;17.20;68.00;;;;;;5026858;28;45080;-71
2024/01/28 03:30:05;;;;;;;4.27;4.00;;;17.20;68.00;;;;;;5029337;28;43783;-71
2024/01/28 03:32:34;;;;;;;3.87;3.77;;;17.10;68.00;;;;;;5028445;28;43360;-73
2024/01/28 03:35:03;;;;;;;3.80;3.70;;;17.10;68.00;;;;;;5028163;28;43619;-71
2024/01/28 03:37:32;;;;;;;3.93;3.80;;;17.10;68.00;;;;;;5026460;28;43562;-72
2024/01/28 03:40:00;;;;;;;4.10;3.90;;;17.10;68.00;;;;;;5035151;28;43934;-72
2024/01/28 03:42:28;;;;;;;3.63;3.53;;;17.10;68.10;;;;;;5028485;28;43372;-72
2024/01/28 03:44:56;;;;;;;3.70;3.60;;;17.10;68.10;;;;;;5027779;28;43912;-71
2024/01/28 03:47:24;;;;;;;3.57;3.47;;;17.10;68.10;;;;;;5026893;28;44322;-72
2024/01/28 03:49:52;;;;;;;4.17;4.00;;;17.10;68.20;;;;;;5026325;28;43380;-72
2024/01/28 03:52:21;;;;;;;3.67;3.57;;;17.10;68.10;;;;;;5028596;28;43388;-72
2024/01/28 03:54:50;;;;;;;3.90;3.80;;;17.20;67.90;;;;;;5027872;28;43919;-71
2024/01/28 03:57:18;;;;;;;4.00;3.80;;;17.30;68.20;;;;;;5027954;28;43469;-71
2024/01/28 03:59:49;;;;;;;3.57;3.47;;;17.30;67.10;;;;;;5026838;28;43423;-71
2024/01/28 04:02:17;;;;;;;3.70;3.50;;;17.30;67.20;;;;;;5027875;28;43440;-71
2024/01/28 04:04:46;;;;;;;3.93;3.73;;;17.30;67.30;;;;;;5026538;28;45729;-71
2024/01/28 04:07:14;;;;;;;3.43;3.30;;;17.30;67.40;;;;;;5027968;28;43873;-72
2024/01/28 04:09:43;;;;;;;3.13;3.03;;;17.30;67.30;;;;;;5028174;28;43469;-77
2024/01/28 04:12:11;;;;;;;3.23;3.13;;;17.30;67.40;;;;;;5026571;28;43550;-77
2024/01/28 04:14:39;;;;;;;3.33;3.23;;;17.30;67.70;;;;;;5028590;28;43855;-75
2024/01/28 04:17:08;;;;;;;3.17;3.07;;;17.20;67.50;;;;;;5027664;28;43942;-77
2024/01/28 04:19:36;;;;;;;3.53;3.37;;;17.20;67.60;;;;;;5027637;28;43428;-77
2024/01/28 04:22:04;;;;;;;3.70;3.60;;;17.20;67.70;;;;;;5027782;28;43574;-76
2024/01/28 04:24:32;;;;;;;3.23;3.13;;;17.20;67.60;;;;;;5028068;28;43908;-79
2024/01/28 04:27:02;;;;;;;3.50;3.40;;;17.20;67.70;;;;;;5027522;28;43509;-78
2024/01/28 04:29:30;;;;;;;3.40;3.30;;;17.20;67.70;;;;;;5027166;28;43554;-77
2024/01/28 04:31:58;;;;;;;3.23;3.13;;;17.20;67.70;;;;;;5027796;28;43826;-77
2024/01/28 04:34:26;;;;;;;3.30;3.20;;;17.20;67.80;;;;;;5028690;28;44794;-77
2024/01/28 04:36:54;;;;;;;3.20;3.10;;;17.20;67.80;;;;;;5025871;28;44324;-79
2024/01/28 04:39:22;;;;;;;3.50;3.40;;;17.20;67.90;;;;;;5025750;28;43360;-77
2024/01/28 04:41:50;;;;;;;3.50;3.40;;;17.10;67.80;;;;;;5026161;28;43588;-77
2024/01/28 04:44:21;;;;;;;3.23;3.03;;;17.10;67.90;;;;;;5025540;28;44170;-78
2024/01/28 04:46:50;;;;;;;3.00;2.90;;;17.10;67.90;;;;;;5025217;28;44617;-77
2024/01/28 04:49:18;;;;;;;3.50;3.40;;;17.10;67.90;;;;;;5026979;28;44032;-77
2024/01/28 04:51:46;;;;;;;3.20;3.00;;;17.10;68.60;;;;;;5029433;28;43454;-75
2024/01/28 04:54:14;;;;;;;3.17;3.07;;;17.10;67.90;;;;;;5029874;28;44194;-73
2024/01/28 04:56:43;;;;;;;3.47;3.27;;;17.10;67.90;;;;;;5028886;28;43866;-74
2024/01/28 04:59:11;;;;;;;3.17;3.07;;;17.10;67.90;;;;;;5026975;28;43483;-73
2024/01/28 05:01:40;;;;;;;3.27;3.17;;;17.20;67.80;;;;;;5029459;28;43376;-74
2024/01/28 05:04:08;;;;;;;3.07;2.97;;;17.30;67.70;;;;;;5028281;28;45826;-73
2024/01/28 05:06:37;;;;;;;3.20;3.10;;;17.40;68.00;;;;;;5025452;28;43372;-73
2024/01/28 05:09:06;;;;;;;3.20;3.10;;;17.50;67.00;;;;;;5027367;28;43416;-73
2024/01/28 05:11:35;;;;;;;3.40;3.20;;;17.70;66.60;;;;;;5027744;28;43562;-74
2024/01/28 05:14:04;;;;;;;3.03;2.93;;;17.90;66.10;;;;;;5028365;28;43844;-73
2024/01/28 05:16:32;;;;;;;2.73;2.63;;;18.00;65.70;;;;;;5031373;28;43327;-74
2024/01/28 05:19:02;;;;;;;2.97;2.87;;;18.10;65.30;;;;;;5028529;28;43470;-73
2024/01/28 05:21:30;;;;;;;3.00;2.90;;;18.20;65.00;;;;;;5029355;28;43413;-74
2024/01/28 05:24:00;;;;;;;2.90;2.80;;;18.30;64.80;;;;;;5031550;28;43838;-75
2024/01/28 05:26:28;;;;;;;3.13;3.03;;;18.30;64.60;;;;;;5028203;28;43788;-77
2024/01/28 05:28:58;;;;;;;3.20;3.10;;;18.40;64.60;;;;;;5026215;28;43860;-74
2024/01/28 05:31:27;;;;;;;2.97;2.87;;;18.30;64.50;;;;;;5026756;28;43626;-73
2024/01/28 05:33:55;;;;;;;3.10;3.00;;;18.20;64.70;;;;;;5028381;28;43682;-73
2024/01/28 05:36:25;;;;;;;2.90;2.80;;;18.10;65.00;;;;;;5033701;28;44061;-75
2024/01/28 05:38:54;;;;;;;2.90;2.80;;;17.90;65.40;;;;;;5027672;28;43414;-73
2024/01/28 05:41:22;;;;;;;3.13;3.03;;;17.80;66.10;;;;;;5027883;28;43940;-74
2024/01/28 05:43:50;;;;;;;3.13;3.03;;;17.70;65.90;;;;;;5025922;28;43929;-73
2024/01/28 05:46:18;;;;;;;2.80;2.70;;;17.60;66.10;;;;;;5028778;28;43473;-73
2024/01/28 05:48:47;;;;;;;2.80;2.70;;;17.60;66.40;;;;;;5026189;28;43400;-73
2024/01/28 05:51:15;;;;;;;2.80;2.70;;;17.50;66.60;;;;;;5027573;28;43463;-74
2024/01/28 05:53:44;;;;;;;2.83;2.73;;;17.40;66.90;;;;;;5029921;28;43922;-73
2024/01/28 05:56:12;;;;;;;3.10;3.00;;;17.40;67.10;;;;;;5031286;28;43715;-73
2024/01/28 05:58:43;;;;;;;2.70;2.60;;;17.40;67.00;;;;;;5031015;28;43471;-73
2024/01/28 06:01:11;;;;;;;3.17;2.97;;;17.30;67.00;;;;;;5035165;28;43399;-72
2024/01/28 06:03:41;;;;;;;2.70;2.60;;;17.30;67.00;;;;;;5030019;28;43848;-71
2024/01/28 06:06:12;;;;;;;2.80;2.70;;;17.30;67.20;;;;;;5035392;28;43933;-71
2024/01/28 06:08:42;;;;;;;3.07;2.93;;;17.30;67.40;;;;;;5028537;28;43407;-70
2024/01/28 06:11:11;;;;;;;2.67;2.57;;;17.30;67.70;;;;;;5030784;28;43437;-71
2024/01/28 06:13:39;;;;;;;2.80;2.70;;;17.30;67.50;;;;;;5027506;28;45732;-72
2024/01/28 06:16:08;;;;;;;2.90;2.80;;;17.50;67.20;;;;;;5028719;28;43440;-71
2024/01/28 06:18:43;;;;;;;2.70;2.60;;;17.50;66.90;;;;;;5026364;28;43405;-73
2024/01/28 06:21:12;;;;;;;3.10;3.00;;;17.50;66.80;;;;;;5023733;28;43532;-72
2024/01/28 06:23:40;;;;;;;2.90;2.80;;;17.40;67.00;;;;;;5030024;28;43575;-71
2024/01/28 06:26:09;;;;;;;2.70;2.60;;;17.40;67.20;;;;;;5036526;28;43453;-72
2024/01/28 06:28:40;;;;;;;2.70;2.50;;;17.40;66.90;;;;;;5029373;28;43462;-71
2024/01/28 06:31:09;;;;;;;2.70;2.60;;;17.40;67.00;;;;;;5030198;28;43437;-73
2024/01/28 06:33:37;;;;;;;2.70;2.60;;;17.40;67.00;;;;;;5028404;28;46117;-73
2024/01/28 06:36:06;;;;;;;2.50;2.40;;;17.30;67.00;;;;;;5030957;28;43548;-72
2024/01/28 06:38:34;;;;;;;2.90;2.80;;;17.30;67.10;;;;;;5029522;28;43474;-72
2024/01/28 06:41:02;;;;;;;2.80;2.70;;;17.30;67.40;;;;;;5031218;28;43444;-77
2024/01/28 06:43:31;;;;;;;2.70;2.60;;;17.30;67.30;;;;;;5026903;28;44253;-77
2024/01/28 06:46:00;;;;;;;2.60;2.60;;;17.30;67.30;;;;;;5030047;28;43437;-76
2024/01/28 06:48:29;;;;;;;2.70;2.63;;;17.20;67.20;;;;;;5028910;28;44017;-76
2024/01/28 06:50:57;;;;;;;2.87;2.77;;;17.20;67.30;;;;;;5030140;28;43470;-73
2024/01/28 06:53:25;;;;;;;2.70;2.60;;;17.20;67.40;;;;;;5030330;28;44123;-74
2024/01/28 06:55:53;;;;;;;2.67;2.57;;;17.20;67.60;;;;;;5029960;28;43400;-73
2024/01/28 06:58:21;;;;;;;2.57;2.50;;;17.30;67.60;;;;;;5032588;28;43414;-74
2024/01/28 07:00:49;;;;;;;2.80;2.70;;;17.40;67.30;;;;;;5035429;28;43424;-75
2024/01/28 07:03:19;;;;;;;2.47;2.47;;;17.40;66.90;;;;;;5028047;28;45839;-74
2024/01/28 07:05:48;;;;;;;2.67;2.57;;;17.40;66.90;;;;;;5033519;28;43492;-73
2024/01/28 07:08:16;;;;;;;2.40;2.40;;;17.40;66.90;;;;;;5029625;28;43407;-73
2024/01/28 07:10:44;;;;;;;2.40;2.40;;;17.30;67.20;;;;;;5030238;28;43487;-74
2024/01/28 07:13:12;;;;;;;2.63;2.53;;;17.30;67.00;;;;;;5029683;28;43564;-74
2024/01/28 07:15:41;;;;;;;2.47;2.40;;;17.30;67.00;;;;;;5031164;28;44965;-73
2024/01/28 07:18:09;;;;;;;2.50;2.40;;;17.30;67.10;;;;;;5037590;28;43388;-74
2024/01/28 07:20:39;;;;;;;2.90;2.80;;;17.30;67.20;;;;;;5029550;28;44010;-72
2024/01/28 07:23:07;;;;;;;2.50;2.40;;;17.20;67.20;;;;;;5027014;28;45378;-72
2024/01/28 07:25:35;;;;;;;2.30;2.30;;;17.20;67.40;;;;;;5026882;28;43727;-71
2024/01/28 07:28:04;;;;;;;2.70;2.60;;;17.20;67.40;;;;;;5027236;28;43475;-72
2024/01/28 07:30:34;;;;;;;2.27;2.27;;;17.20;67.40;;;;;;5028708;28;43475;-70
2024/01/28 07:33:07;;;;;;;2.90;2.80;;;17.20;67.40;;;;;;5028267;28;43677;-71
2024/01/28 07:35:36;;;;;;;2.43;2.43;;;17.20;67.50;;;;;;5027692;28;43443;-71
2024/01/28 07:38:05;;;;;;;2.70;2.60;;;17.20;67.60;;;;;;5029425;28;43408;-71
2024/01/28 07:40:33;;;;;;;2.03;2.03;;;17.10;67.40;;;;;;5028722;28;43408;-71
2024/01/28 07:43:02;;;;;;;2.40;2.30;;;17.10;67.40;;;;;;5027938;28;43655;-72
2024/01/28 07:45:30;;;;;;;2.10;2.10;;;17.20;67.50;;;;;;5034217;28;43463;-71
2024/01/28 07:47:58;;;;;;;2.37;2.37;;;17.10;67.40;;;;;;5028390;28;44388;-71
2024/01/28 07:50:26;;;;;;;2.23;2.23;;;17.10;67.50;;;;;;5027906;28;43637;-72
2024/01/28 07:52:54;;;;;;;2.10;2.07;;;17.10;67.50;;;;;;5026260;28;46008;-72
2024/01/28 07:55:24;;;;;;;2.40;2.40;;;17.10;67.70;;;;;;5027928;28;43507;-71
2024/01/28 07:57:53;;;;;;;2.47;2.37;;;17.20;67.70;;;;;;5031135;28;43460;-71
2024/01/28 08:00:21;;;;;;;2.20;2.20;;;17.30;67.40;;;;;;5027050;28;43521;-71
2024/01/28 08:02:50;;;;;;;2.30;2.23;;;17.40;67.10;;;;;;5029595;28;43728;-70
2024/01/28 08:05:21;;;;;;;2.30;2.30;;;17.40;66.80;;;;;;5028336;28;43376;-71
2024/01/28 08:07:49;;;;;;;2.73;2.73;;;17.30;66.70;;;;;;5028506;28;43408;-71
2024/01/28 08:10:17;;;;;;;2.47;2.40;;;17.30;67.10;;;;;;5028669;28;43470;-70
2024/01/28 08:12:48;;;;;;;2.67;2.57;;;17.30;67.00;;;;;;5029964;28;43608;-71
2024/01/28 08:15:17;;;;;;;2.43;2.43;;;17.30;67.00;;;;;;5029492;28;45017;-71
2024/01/28 08:17:45;;;;;;;2.37;2.37;;;17.20;67.00;;;;;;5022910;28;43962;-72
2024/01/28 08:20:14;;;;;;;2.43;2.33;;;17.20;67.80;;;;;;5037520;28;43534;-72
2024/01/28 08:22:42;;;;;;;2.60;2.50;;;17.20;67.30;;;;;;5023796;28;44040;-71
2024/01/28 08:25:11;;;;;;;2.07;2.07;;;17.20;67.40;;;;;;5027315;28;44673;-71
2024/01/28 08:27:40;;;;;;;2.27;2.17;;;17.20;67.40;;;;;;5034205;28;43359;-72
2024/01/28 08:30:11;;;;;;;2.57;2.57;;;17.10;67.40;;;;;;5028513;28;43494;-75
2024/01/28 08:32:39;;;;;;;2.47;2.30;;;17.10;67.40;;;;;;5022004;28;44017;-77
2024/01/28 08:35:08;;;;;;;2.30;2.30;;;17.10;67.60;;;;;;5025064;28;44955;-76
2024/01/28 08:37:36;;;;;;;2.57;2.47;;;17.10;67.50;;;;;;5030414;28;43468;-75
2024/01/28 08:40:07;;;;;;;2.23;2.23;;;17.10;67.50;;;;;;5027384;28;43506;-76
2024/01/28 08:42:35;;;;;;;2.33;2.30;;;17.10;67.70;;;;;;5024740;28;46039;-76
2024/01/28 08:45:04;;;;;;;2.23;2.23;;;17.20;67.70;;;;;;5027272;28;43341;-77
2024/01/28 08:47:34;;;;;;;2.20;2.20;;;17.20;67.30;;;;;;5030098;28;43456;-75
2024/01/28 08:50:03;;;;;;;2.10;2.10;;;17.20;67.70;;;;;;5030934;28;43465;-76
2024/01/28 08:52:31;;;;;;;2.30;2.30;;;17.20;67.00;;;;;;5029579;28;43875;-75
2024/01/28 08:54:59;;;;;;;2.17;2.17;;;17.20;67.10;;;;;;5027840;28;43567;-75
2024/01/28 08:57:27;;;;;;;2.63;2.43;;;17.20;67.30;;;;;;5027627;28;43448;-74
2024/01/28 08:59:55;;;;;;;2.63;2.53;;;17.20;67.10;;;;;;5026136;28;43490;-76
2024/01/28 09:02:23;;;;;;;2.10;2.10;;;17.20;67.20;;;;;;5027614;28;43636;-80
2024/01/28 09:04:52;;;;;;;2.50;2.40;;;17.10;67.20;;;;;;5025596;28;45119;-78
2024/01/28 09:07:21;;;;;;;3.30;2.20;;;17.20;68.00;;;;;;5028922;28;43882;-77
2024/01/28 09:09:49;;;;;;;2.60;2.40;;;17.10;67.30;;;;;;5027837;28;43494;-75
2024/01/28 09:12:17;;;;;;;2.30;2.20;;;17.10;67.50;;;;;;5027019;28;43587;-76
2024/01/28 09:14:45;;;;;;;2.60;2.50;;;17.10;67.40;;;;;;5027782;28;43887;-78
2024/01/28 09:17:14;;;;;;;54.00;32.77;;;17.10;67.40;;;;;;5027885;28;43454;-75
2024/01/28 09:19:45;;;;;;;189.17;100.40;;;17.10;67.50;;;;;;5032973;28;43970;-76
2024/01/28 09:22:14;;;;;;;117.83;59.03;;;17.10;67.50;;;;;;5025187;28;45422;-74
2024/01/28 09:24:43;;;;;;;89.57;43.67;;;17.10;67.50;;;;;;5026787;28;43511;-74
2024/01/28 09:27:12;;;;;;;103.87;48.77;;;17.10;67.60;;;;;;5030248;28;43465;-76
2024/01/28 09:29:40;;;;;;;115.47;52.90;;;17.10;67.80;;;;;;5030316;28;44045;-75
2024/01/28 09:32:08;;;;;;;135.77;60.57;;;17.10;67.70;;;;;;5029590;28;43922;-75
2024/01/28 09:34:36;;;;;;;155.93;72.60;;;17.20;67.40;;;;;;5030218;28;43382;-76
2024/01/28 09:37:07;;;;;;;168.20;80.90;;;17.30;67.00;;;;;;5035664;28;43506;-78
2024/01/28 09:39:36;;;;;;;275.40;131.00;;;17.30;66.90;;;;;;5034391;28;43425;-75
2024/01/28 09:42:10;;;;;;;177.07;86.90;;;17.30;67.00;;;;;;5036058;28;43830;-69
2024/01/28 09:44:38;;;;;;;173.63;81.57;;;17.20;67.10;;;;;;5030613;28;44949;-71
2024/01/28 09:47:06;;;;;;;168.70;82.77;;;17.20;66.70;;;;;;5032121;28;43386;-72
2024/01/28 09:49:39;;;;;;;153.77;78.10;;;17.20;66.80;;;;;;5032724;28;43353;-72
2024/01/28 09:52:10;;;;;;;149.97;74.40;;;17.20;67.00;;;;;;5031827;28;46173;-72
2024/01/28 09:54:41;;;;;;;140.47;70.70;;;17.20;67.10;;;;;;5034630;28;43474;-71
2024/01/28 09:57:09;;;;;;;143.40;71.03;;;17.20;67.30;;;;;;5029469;28;43448;-73
2024/01/28 09:59:37;;;;;;;129.13;65.50;;;17.20;67.40;;;;;;5025839;28;43376;-72
2024/01/28 10:02:06;;;;;;;126.80;63.50;;;17.20;67.30;;;;;;5033772;28;43819;-73
2024/01/28 10:04:34;;;;;;;118.63;62.20;;;17.20;67.40;;;;;;5034429;28;43450;-72
2024/01/28 10:07:03;;;;;;;134.43;65.80;;;17.20;67.40;;;;;;5040280;28;43850;-74
2024/01/28 10:09:31;;;;;;;130.30;64.23;;;17.20;67.60;;;;;;5025995;28;43506;-74
2024/01/28 10:12:01;;;;;;;126.87;63.27;;;17.20;68.30;;;;;;5026199;28;43628;-74
2024/01/28 10:14:29;;;;;;;133.70;66.27;;;17.20;67.70;;;;;;5026207;28;44429;-73
2024/01/28 10:16:57;;;;;;;123.10;62.43;;;17.20;68.00;;;;;;5024688;28;43538;-73
2024/01/28 10:19:26;;;;;;;124.93;62.37;;;17.20;68.10;;;;;;5027084;28;43581;-72
2024/01/28 10:21:54;;;;;;;122.57;60.63;;;17.30;67.60;;;;;;5024046;28;43616;-72
2024/01/28 10:24:22;;;;;;;117.10;60.33;;;17.30;67.30;;;;;;5032114;28;44083;-72
2024/01/28 10:26:50;;;;;;;118.60;59.33;;;17.30;67.50;;;;;;5028736;28;44008;-72
2024/01/28 10:29:23;;;;;;;121.50;60.53;;;17.30;67.60;;;;;;5028467;28;44000;-72
2024/01/28 10:31:51;;;;;;;119.73;60.07;;;17.30;67.80;;;;;;5027904;28;44815;-73
2024/01/28 10:34:20;;;;;;;112.33;56.80;;;17.30;67.70;;;;;;5028796;28;43514;-72
2024/01/28 10:36:49;;;;;;;105.40;55.90;;;17.30;67.90;;;;;;5027063;28;43427;-72
2024/01/28 10:39:17;;;;;;;107.97;55.17;;;17.20;67.90;;;;;;5027841;28;43468;-71
2024/01/28 10:41:45;;;;;;;102.77;54.33;;;17.20;67.90;;;;;;5029334;28;43635;-71
2024/01/28 10:44:14;;;;;;;111.07;53.83;;;17.20;68.10;;;;;;5025941;28;43595;-74
2024/01/28 10:46:45;;;;;;;104.50;54.13;;;17.20;68.10;;;;;;5028265;28;43533;-74
2024/01/28 10:49:14;;;;;;;95.47;50.97;;;17.20;68.10;;;;;;5028692;28;43464;-72
2024/01/28 10:51:42;;;;;;;91.77;49.10;;;17.20;68.30;;;;;;5029045;28;44236;-74
2024/01/28 10:54:10;;;;;;;92.27;49.67;;;17.20;68.40;;;;;;5040612;28;43438;-72
2024/01/28 10:56:39;;;;;;;90.90;48.57;;;17.20;68.50;;;;;;5041043;28;43568;-72
2024/01/28 10:59:08;;;;;;;91.80;48.90;;;17.20;68.60;;;;;;5029094;23;43689;-71
2024/01/28 11:01:36;;;;;;;90.80;47.77;;;17.20;68.50;;;;;;5001864;28;43915;-70
2024/01/28 11:04:05;;;;;;;85.43;45.93;;;17.20;68.60;;;;;;5000301;28;43429;-71
2024/01/28 11:06:35;;;;;;;83.57;44.77;;;17.30;68.60;;;;;;5000081;28;43515;-69
2024/01/28 11:09:04;;;;;;;74.03;42.57;;;17.30;68.00;;;;;;5012565;28;43459;-70
2024/01/28 11:11:33;;;;;;;76.57;41.70;;;17.40;68.00;;;;;;5016918;28;43612;-69
2024/01/28 11:14:07;;;;;;;74.60;40.50;;;17.40;68.20;;;;;;5011199;28;43533;-69
2024/01/28 11:16:35;;;;;;;74.73;42.03;;;17.40;68.20;;;;;;5009634;28;43404;-69
2024/01/28 11:19:07;;;;;;;69.07;38.27;;;17.40;68.20;;;;;;4997672;28;43522;-69
2024/01/28 11:21:35;;;;;;;65.23;38.17;;;17.40;68.20;;;;;;5003649;28;45710;-70
2024/01/28 11:24:06;;;;;;;70.00;38.07;;;17.40;69.20;;;;;;5000265;28;46048;-70
2024/01/28 11:26:35;;;;;;;59.40;35.67;;;17.40;68.50;;;;;;5006600;28;44078;-69
2024/01/28 11:29:07;;;;;;;63.07;35.83;;;17.40;69.30;;;;;;5004432;28;43438;-71
2024/01/28 11:31:36;;;;;;;67.20;36.70;;;17.40;68.70;;;;;;5007068;28;43826;-71
2024/01/28 11:34:15;;;;;;;61.87;34.67;;;17.40;68.60;;;;;;5001239;28;43495;-69
2024/01/28 11:36:45;;;;;;;57.13;32.40;;;17.40;68.60;;;;;;5003331;28;43743;-69
2024/01/28 11:39:15;;;;;;;55.63;32.67;;;17.40;69.40;;;;;;5002498;28;43577;-70
2024/01/28 11:41:44;;;;;;;57.57;33.00;;;17.40;68.70;;;;;;5008464;28;43666;-70
2024/01/28 11:44:12;;;;;;;53.77;31.83;;;17.40;68.50;;;;;;5008661;28;43490;-69
2024/01/28 11:46:40;;;;;;;61.43;34.37;;;17.40;68.50;;;;;;5003893;28;43584;-70
2024/01/28 11:49:10;;;;;;;58.63;33.23;;;17.40;68.20;;;;;;5002648;28;43370;-69
2024/01/28 11:51:38;;;;;;;55.63;32.30;;;17.40;68.10;;;;;;5006839;28;43604;-70
2024/01/28 11:54:06;;;;;;;56.50;31.77;;;17.40;68.20;;;;;;5001394;28;43475;-69
2024/01/28 11:56:35;;;;;;;50.47;30.77;;;17.40;68.20;;;;;;5003538;28;43515;-69
2024/01/28 11:59:03;;;;;;;54.20;31.30;;;17.40;68.10;;;;;;4999277;28;44010;-69
2024/01/28 12:01:32;;;;;;;52.07;30.33;;;17.40;68.20;;;;;;5003401;28;43850;-69
2024/01/28 12:04:00;;;;;;;53.03;30.77;;;17.40;68.00;;;;;;5003854;28;43435;-69
2024/01/28 12:06:30;;;;;;;53.40;31.03;;;17.40;68.30;;;;;;4999857;28;43458;-69
2024/01/28 12:09:00;;;;;;;51.57;30.40;;;17.40;67.20;;;;;;5003687;28;44309;-69
2024/01/28 12:11:28;;;;;;;50.57;29.50;;;17.50;67.20;;;;;;5000072;28;44015;-70
2024/01/28 12:13:56;;;;;;;42.67;27.93;;;17.50;67.40;;;;;;5004782;28;43910;-69
2024/01/28 12:16:25;;;;;;;41.60;26.67;;;17.50;67.40;;;;;;5002167;28;44028;-69
2024/01/28 12:18:54;;;;;;;46.77;27.30;;;17.50;67.50;;;;;;5000957;28;43497;-68
2024/01/28 12:21:23;;;;;;;42.70;25.67;;;17.40;67.30;;;;;;5001087;28;43848;-71
2024/01/28 12:23:56;;;;;;;40.93;25.33;;;17.40;67.50;;;;;;4998654;28;43465;-70
2024/01/28 12:26:24;;;;;;;43.50;25.23;;;17.40;67.60;;;;;;4999411;28;43492;-69
2024/01/28 12:28:54;;;;;;;41.27;24.33;;;17.40;67.60;;;;;;5001915;28;44116;-70
2024/01/28 12:31:22;;;;;;;39.30;24.17;;;17.40;67.70;;;;;;5000201;28;43612;-69
2024/01/28 12:33:50;;;;;;;37.77;24.20;;;17.40;67.70;;;;;;5000651;28;44072;-71
2024/01/28 12:36:19;;;;;;;38.03;24.10;;;17.40;67.60;;;;;;5003327;28;43455;-70
2024/01/28 12:38:47;;;;;;;39.27;23.00;;;17.40;67.80;;;;;;5002477;28;43397;-71
2024/01/28 12:41:18;;;;;;;35.83;23.00;;;17.40;67.90;;;;;;4998349;28;44293;-69
2024/01/28 12:43:48;;;;;;;39.03;22.10;;;17.40;67.90;;;;;;5014151;28;44697;-69
2024/01/28 12:46:20;;;;;;;34.37;21.20;;;17.30;67.80;;;;;;5001663;28;43378;-69
2024/01/28 12:48:48;;;;;;;31.33;20.63;;;17.30;67.60;;;;;;5002213;28;44312;-69